Time;durP1;ratioP1;P1;durP2;ratioP2;P2;SDS_P1;SDS_P2;PMS_P1;PMS_P2;Temp;Humidity;BMP_temperature;BMP_pressure;BME280_temperature;BME280_humidity;BME280_pressure;Samples;Min_cycle;Max_cycle;Signal;HPM_P1;HPM_P2
2022/11/22 00:00:28;;;;;;;1.65;1.25;;;;;;;3.58;100.00;98872.31;6244640;23;20016;-84
2022/11/22 00:02:54;;;;;;;2.13;1.80;;;;;;;3.55;100.00;98875.91;6243790;23;20016;-84
2022/11/22 00:05:20;;;;;;;3.50;2.13;;;;;;;3.53;100.00;98877.50;6217769;23;20087;-83
2022/11/22 00:07:45;;;;;;;0.43;0.43;;;;;;;3.44;100.00;98861.56;6217177;23;20008;-86
2022/11/22 00:10:12;;;;;;;1.23;1.08;;;;;;;3.47;100.00;98874.47;6190706;23;20466;-86
2022/11/22 00:12:38;;;;;;;1.00;1.00;;;;;;;3.43;100.00;98871.00;6190561;23;20004;-86
2022/11/22 00:15:05;;;;;;;1.55;1.13;;;;;;;3.45;100.00;98876.84;6241539;23;20032;-87
2022/11/22 00:17:31;;;;;;;1.90;1.80;;;;;;;3.39;100.00;98862.06;6242632;23;20012;-86
2022/11/22 00:19:56;;;;;;;1.35;1.25;;;;;;;3.39;100.00;98861.28;6212316;23;20017;-86
2022/11/22 00:22:22;;;;;;;2.45;1.27;;;;;;;3.40;100.00;98863.59;6242840;23;20012;-87
2022/11/22 00:24:50;;;;;;;3.25;2.13;;;;;;;3.42;100.00;98865.94;6215639;23;20008;-84
2022/11/22 00:27:16;;;;;;;0.95;0.88;;;;;;;3.41;100.00;98870.63;6215671;23;20358;-85
2022/11/22 00:29:41;;;;;;;1.08;1.02;;;;;;;3.40;100.00;98873.81;6217532;23;20000;-85
2022/11/22 00:32:06;;;;;;;0.35;0.35;;;;;;;3.33;100.00;98862.94;6217010;23;20091;-85
2022/11/22 00:34:32;;;;;;;1.35;1.27;;;;;;;3.36;100.00;98862.88;6218083;23;20004;-85
2022/11/22 00:36:57;;;;;;;1.15;1.13;;;;;;;3.33;100.00;98850.03;6243825;23;20464;-85
2022/11/22 00:39:23;;;;;;;2.60;1.85;;;;;;;3.41;100.00;98859.66;6244605;23;20423;-85
2022/11/22 00:41:48;;;;;;;1.42;1.35;;;;;;;3.40;100.00;98862.84;6243903;23;20012;-85
2022/11/22 00:44:14;;;;;;;0.73;0.73;;;;;;;3.32;100.00;98851.19;6217991;23;20024;-82
2022/11/22 00:46:40;;;;;;;1.60;1.42;;;;;;;3.37;100.00;98861.69;6243877;23;20016;-85
2022/11/22 00:49:05;;;;;;;1.77;1.63;;;;;;;3.36;100.00;98860.13;6244658;23;20534;-85
2022/11/22 00:51:31;;;;;;;0.98;0.98;;;;;;;3.37;100.00;98852.69;6244369;23;20083;-85
2022/11/22 00:53:56;;;;;;;1.90;1.65;;;;;;;3.32;100.00;98851.19;6244313;23;20460;-85
2022/11/22 00:56:22;;;;;;;3.42;3.13;;;;;;;3.36;100.00;98857.41;6243682;23;20019;-86
2022/11/22 00:58:47;;;;;;;2.30;1.75;;;;;;;3.34;100.00;98835.13;6243687;23;20481;-85
2022/11/22 01:01:12;;;;;;;0.82;0.82;;;;;;;3.36;100.00;98840.94;6244863;23;20070;-85
2022/11/22 01:03:38;;;;;;;1.52;1.42;;;;;;;3.34;100.00;98832.38;6243947;23;20047;-85
2022/11/22 01:06:03;;;;;;;0.68;0.68;;;;;;;3.33;100.00;98833.56;6243882;23;20016;-85
2022/11/22 01:08:29;;;;;;;7.97;2.03;;;;;;;3.37;100.00;98831.56;6192187;23;20007;-85
2022/11/22 01:10:59;;;;;;;1.48;1.38;;;;;;;3.38;100.00;98844.06;6217657;23;20012;-85
2022/11/22 01:13:26;;;;;;;1.20;1.20;;;;;;;3.32;100.00;98840.25;6217025;23;20008;-85
2022/11/22 01:15:52;;;;;;;1.27;1.25;;;;;;;3.29;100.00;98841.88;6192133;23;20422;-85
2022/11/22 01:18:18;;;;;;;1.65;1.55;;;;;;;3.25;100.00;98835.66;6244357;23;20065;-85
2022/11/22 01:20:43;;;;;;;2.28;2.17;;;;;;;3.25;100.00;98851.31;6216875;23;20087;-85
2022/11/22 01:23:09;;;;;;;3.13;2.92;;;;;;;3.19;100.00;98853.00;6243948;23;20039;-85
2022/11/22 01:25:34;;;;;;;2.05;1.95;;;;;;;3.15;100.00;98841.31;6244506;23;20015;-86
2022/11/22 01:28:00;;;;;;;3.47;3.17;;;;;;;3.08;100.00;98836.72;6240072;23;20422;-86
2022/11/22 01:30:25;;;;;;;2.50;2.30;;;;;;;3.00;100.00;98832.53;6215808;23;20030;-85
2022/11/22 01:32:51;;;;;;;5.75;1.67;;;;;;;3.01;100.00;98833.31;6240029;23;20008;-85
2022/11/22 01:35:16;;;;;;;0.85;0.85;;;;;;;3.02;100.00;98810.22;6241952;23;20581;-84
2022/11/22 01:37:42;;;;;;;0.70;0.70;;;;;;;3.03;100.00;98811.78;6242119;23;20012;-85
2022/11/22 01:40:09;;;;;;;0.20;0.20;;;;;;;3.03;100.00;98811.78;6213638;23;20012;-85
2022/11/22 01:42:55;;;;;;;0.50;0.50;;;;;;;3.05;100.00;98814.88;6213582;23;20062;-85
2022/11/22 01:45:30;;;;;;;0.20;0.20;;;;;;;3.05;100.00;98820.34;6190906;23;20018;-85
2022/11/22 01:48:05;;;;;;;1.58;1.40;;;;;;;3.09;100.00;98821.06;6242243;23;20047;-85
2022/11/22 01:50:34;;;;;;;0.85;0.82;;;;;;;3.11;100.00;98829.66;6217192;23;20016;-85
2022/11/22 01:53:04;;;;;;;1.55;1.05;;;;;;;3.11;100.00;98810.47;6215862;23;20012;-84
2022/11/22 01:55:30;;;;;;;3.22;3.00;;;;;;;3.09;100.00;98815.56;6243693;23;20111;-85
2022/11/22 01:57:56;;;;;;;1.05;1.05;;;;;;;3.01;100.00;98814.91;6216573;23;20019;-86
2022/11/22 02:00:21;;;;;;;0.30;0.30;;;;;;;3.09;100.00;98834.75;6243039;23;20138;-85
2022/11/22 02:02:54;;;;;;;0.98;0.98;;;;;;;2.79;100.00;98786.34;6244374;22;20061;-85
2022/11/22 02:05:22;;;;;;;4.13;1.13;;;;;;;2.98;100.00;98829.47;6245519;22;20340;-85
2022/11/22 02:07:53;;;;;;;1.98;1.83;;;;;;;2.93;100.00;98824.44;6245074;22;20015;-85
2022/11/22 02:10:19;;;;;;;1.15;1.15;;;;;;;2.86;100.00;98823.78;6243525;22;20078;-85
2022/11/22 02:12:45;;;;;;;3.85;2.42;;;;;;;2.87;100.00;98836.28;6245440;22;20015;-85
2022/11/22 02:15:11;;;;;;;2.42;2.22;;;;;;;2.78;100.00;98826.63;6244392;22;20046;-84
2022/11/22 02:17:36;;;;;;;0.82;0.80;;;;;;;2.80;100.00;98826.19;6270214;22;20011;-84
2022/11/22 02:20:02;;;;;;;0.77;0.77;;;;;;;2.78;100.00;98829.38;6246110;22;20433;-84
2022/11/22 02:22:35;;;;;;;1.90;1.75;;;;;;;2.73;100.00;98821.63;6270182;22;20377;-84
2022/11/22 02:25:29;;;;;;;3.73;2.10;;;;;;;2.72;100.00;98820.06;6272221;22;20011;-84
2022/11/22 02:27:55;;;;;;;0.85;0.85;;;;;;;2.79;100.00;98825.41;6243041;22;20059;-85
2022/11/22 02:30:20;;;;;;;2.35;1.70;;;;;;;2.72;100.00;98803.63;6243457;22;20310;-85
2022/11/22 02:32:46;;;;;;;1.63;1.40;;;;;;;2.78;100.00;98806.69;6272905;22;20091;-84
2022/11/22 02:35:15;;;;;;;0.98;0.90;;;;;;;2.78;100.00;98804.72;6242733;22;20024;-84
2022/11/22 02:37:41;;;;;;;1.02;0.98;;;;;;;2.71;100.00;98777.44;6272436;22;20018;-85
2022/11/22 02:40:12;;;;;;;2.53;1.83;;;;;;;2.72;100.00;98800.88;6242754;22;20031;-80
2022/11/22 02:42:37;;;;;;;0.68;0.68;;;;;;;2.69;100.00;98792.72;6218734;22;20073;-79
2022/11/22 02:45:03;;;;;;;0.20;0.20;;;;;;;2.69;100.00;98800.94;6247447;22;20019;-80
2022/11/22 02:47:28;;;;;;;0.30;0.30;;;;;;;2.66;100.00;98791.59;6270719;22;20022;-80
2022/11/22 02:49:54;;;;;;;2.05;1.85;;;;;;;2.64;100.00;98780.28;6274460;22;20007;-80
2022/11/22 02:52:19;;;;;;;0.20;0.20;;;;;;;2.63;100.00;98786.94;6271355;22;20004;-79
2022/11/22 02:54:45;;;;;;;1.17;0.93;;;;;;;2.62;100.00;98785.41;6272537;22;20453;-80
2022/11/22 02:57:11;;;;;;;0.00;0.00;;;;;;;2.56;100.00;98778.84;6274171;22;20031;-80
2022/11/22 02:59:37;;;;;;;0.35;0.35;;;;;;;2.55;100.00;98777.28;6273528;22;20039;-80
2022/11/22 03:02:02;;;;;;;1.35;1.30;;;;;;;2.52;100.00;98783.59;6271359;22;20395;-80
2022/11/22 03:04:28;;;;;;;0.43;0.43;;;;;;;2.46;100.00;98766.09;6274192;22;20023;-79
2022/11/22 03:06:55;;;;;;;0.95;0.95;;;;;;;2.45;100.00;98767.28;6271416;22;20016;-80
2022/11/22 03:09:21;;;;;;;3.55;1.70;;;;;;;2.41;100.00;98772.03;6271395;22;20012;-80
2022/11/22 03:11:46;;;;;;;4.35;1.17;;;;;;;2.42;100.00;98761.84;6275039;22;20117;-79
2022/11/22 03:14:14;;;;;;;2.15;1.95;;;;;;;2.40;100.00;98756.78;6272113;22;20017;-80
2022/11/22 03:16:40;;;;;;;12.82;1.15;;;;;;;2.42;100.00;98757.16;6271546;22;20011;-79
2022/11/22 03:19:06;;;;;;;0.73;0.73;;;;;;;2.39;100.00;98757.97;6273543;22;20012;-80
2022/11/22 03:21:31;;;;;;;0.45;0.45;;;;;;;2.38;100.00;98759.19;6242955;22;20161;-80
2022/11/22 03:23:57;;;;;;;0.75;0.75;;;;;;;2.37;100.00;98765.84;6244819;22;20453;-80
2022/11/22 03:26:22;;;;;;;0.82;0.77;;;;;;;2.33;100.00;98754.16;6272241;22;20501;-80
2022/11/22 03:28:47;;;;;;;0.73;0.73;;;;;;;2.31;100.00;98768.25;6270323;22;20396;-80
2022/11/22 03:31:13;;;;;;;0.22;0.22;;;;;;;2.32;100.00;98763.53;6274842;22;20079;-79
2022/11/22 03:33:38;;;;;;;0.47;0.43;;;;;;;2.31;100.00;98762.00;6244188;22;20042;-80
2022/11/22 03:36:04;;;;;;;2.20;1.30;;;;;;;2.24;100.00;98742.94;6269984;22;20069;-80
2022/11/22 03:38:30;;;;;;;0.82;0.82;;;;;;;2.21;100.00;98743.78;6275387;22;20012;-80
2022/11/22 03:40:55;;;;;;;1.13;1.13;;;;;;;2.09;100.00;98733.38;6272616;22;20007;-80
2022/11/22 03:43:21;;;;;;;1.55;1.45;;;;;;;2.16;100.00;98739.53;6268467;22;20083;-79
2022/11/22 03:45:46;;;;;;;2.50;1.13;;;;;;;2.17;100.00;98729.38;6274372;22;20346;-80
2022/11/22 03:48:12;;;;;;;0.63;0.63;;;;;;;2.17;100.00;98734.84;6269488;22;20894;-80
2022/11/22 03:50:38;;;;;;;1.42;1.38;;;;;;;2.16;100.00;98731.31;6271287;22;20416;-80
2022/11/22 03:53:04;;;;;;;4.53;0.95;;;;;;;2.16;100.00;98733.28;6244147;22;20015;-80
2022/11/22 03:55:29;;;;;;;2.42;1.65;;;;;;;2.08;100.00;98737.31;6269007;22;20091;-80
2022/11/22 03:57:55;;;;;;;1.65;1.55;;;;;;;2.10;100.00;98732.22;6248194;22;20456;-80
2022/11/22 04:00:20;;;;;;;1.45;1.08;;;;;;;2.11;100.00;98728.28;6241567;22;20016;-80
2022/11/22 04:02:46;;;;;;;5.50;2.05;;;;;;;2.07;100.00;98719.34;6269948;22;20102;-80
2022/11/22 04:05:11;;;;;;;0.73;0.73;;;;;;;1.97;100.00;98712.84;6274184;22;20070;-80
2022/11/22 04:07:37;;;;;;;2.03;1.92;;;;;;;2.07;100.00;98719.34;6270649;22;20091;-80
2022/11/22 04:10:03;;;;;;;0.80;0.80;;;;;;;2.02;100.00;98714.34;6270930;22;20034;-79
2022/11/22 04:12:29;;;;;;;1.38;1.27;;;;;;;2.04;100.00;98717.44;6273856;22;20015;-84
2022/11/22 04:15:07;;;;;;;2.63;0.93;;;;;;;2.08;100.00;98726.38;6270227;22;20020;-84
2022/11/22 04:17:40;;;;;;;1.65;0.80;;;;;;;2.06;100.00;98715.84;6270702;22;20047;-84
2022/11/22 04:23:18;;;;;;;1.25;1.17;;;;;;;2.03;100.00;98718.63;6267490;22;20015;-84
2022/11/22 04:25:45;;;;;;;1.30;1.27;;;;;;;2.08;100.00;98715.41;6272073;22;20011;-84
2022/11/22 04:28:12;;;;;;;0.57;0.57;;;;;;;2.00;100.00;98709.28;6272903;22;20018;-84
2022/11/22 04:33:22;;;;;;;0.52;0.52;;;;;;;2.01;100.00;98712.78;6273049;22;20008;-85
2022/11/22 04:35:48;;;;;;;2.35;1.77;;;;;;;2.04;100.00;98714.69;6272645;22;20088;-85
2022/11/22 04:38:15;;;;;;;0.70;0.70;;;;;;;2.08;100.00;98712.69;6267675;22;20012;-84
2022/11/22 04:40:40;;;;;;;0.77;0.77;;;;;;;2.02;100.00;98706.94;6272300;22;19999;-84
2022/11/22 04:45:50;;;;;;;0.32;0.32;;;;;;;2.10;100.00;98708.38;6241190;22;20077;-83
2022/11/22 04:48:16;;;;;;;0.70;0.70;;;;;;;2.17;100.00;98702.00;6272906;22;20015;-84
2022/11/22 04:53:27;;;;;;;2.85;1.92;;;;;;;2.22;100.00;98693.34;6268524;22;20078;-79
2022/11/22 04:55:52;;;;;;;10.88;1.23;;;;;;;2.24;100.00;98690.97;6270066;22;20019;-80
2022/11/22 04:58:18;;;;;;;2.28;2.08;;;;;;;2.24;100.00;98683.53;6242795;22;20426;-79
2022/11/22 05:00:44;;;;;;;1.42;1.33;;;;;;;2.30;100.00;98689.31;6271981;22;20008;-80
2022/11/22 05:03:09;;;;;;;1.90;1.80;;;;;;;2.32;100.00;98681.47;6273300;22;20087;-79
2022/11/22 05:05:39;;;;;;;3.60;1.85;;;;;;;2.32;100.00;98678.72;6270007;22;20047;-79
2022/11/22 05:08:06;;;;;;;2.58;2.08;;;;;;;2.40;100.00;98685.63;6271347;22;20038;-80
2022/11/22 05:10:55;;;;;;;1.85;1.70;;;;;;;2.47;100.00;98688.25;6245812;22;20574;-79
2022/11/22 05:13:18;;;;;;;1.92;1.80;;;;;;;2.50;100.00;98687.44;6251784;22;20020;-79
2022/11/22 05:15:44;;;;;;;0.93;0.93;;;;;;;2.51;100.00;98671.78;6246916;22;20061;-79
2022/11/22 05:18:09;;;;;;;2.55;2.17;;;;;;;2.54;100.00;98668.22;6271782;22;20019;-80
2022/11/22 05:20:35;;;;;;;1.98;1.33;;;;;;;2.47;100.00;98660.88;6272869;22;20437;-80
2022/11/22 05:25:44;;;;;;;2.13;2.00;;;;;;;2.57;100.00;98673.63;6272957;22;20012;-80
2022/11/22 05:28:10;;;;;;;7.18;3.70;;;;;;;2.59;100.00;98668.50;6246078;22;20047;-80
2022/11/22 05:30:38;;;;;;;0.63;0.55;;;;;;;2.59;100.00;98665.75;6271786;22;20016;-84
2022/11/22 05:33:04;;;;;;;2.97;2.72;;;;;;;2.62;100.00;98654.00;6273245;22;20011;-84
2022/11/22 05:35:29;;;;;;;2.20;2.00;;;;;;;2.54;100.00;98641.63;6272310;22;20035;-83
2022/11/22 05:37:55;;;;;;;2.42;1.98;;;;;;;2.63;100.00;98638.34;6272764;22;20011;-83
2022/11/22 05:40:21;;;;;;;3.90;3.60;;;;;;;2.66;100.00;98645.72;6273173;22;20015;-84
2022/11/22 05:42:46;;;;;;;1.05;0.95;;;;;;;2.61;100.00;98622.34;6270707;22;20574;-84
2022/11/22 05:45:12;;;;;;;2.83;2.63;;;;;;;2.64;100.00;98643.41;6271636;22;20019;-83
2022/11/22 05:47:40;;;;;;;2.08;1.13;;;;;;;2.65;100.00;98642.22;6272601;22;20364;-84
2022/11/22 05:50:07;;;;;;;1.15;1.05;;;;;;;2.61;100.00;98644.25;6271514;22;20022;-84
2022/11/22 05:52:33;;;;;;;1.88;1.08;;;;;;;2.64;100.00;98642.63;6272733;22;20453;-84
2022/11/22 05:54:58;;;;;;;3.70;2.15;;;;;;;2.65;100.00;98642.22;6273082;22;20012;-84
2022/11/22 05:57:24;;;;;;;0.73;0.60;;;;;;;2.69;100.00;98651.13;6244203;22;20319;-84
2022/11/22 05:59:49;;;;;;;2.83;2.53;;;;;;;2.69;100.00;98645.66;6245386;22;20023;-84
2022/11/22 06:02:15;;;;;;;0.57;0.57;;;;;;;2.71;100.00;98637.03;6269669;22;20007;-84
2022/11/22 06:04:40;;;;;;;1.48;1.40;;;;;;;2.81;100.00;98625.88;6272873;22;20464;-84
2022/11/22 06:07:06;;;;;;;1.45;1.33;;;;;;;2.76;100.00;98620.88;6272878;22;20012;-83
2022/11/22 06:09:31;;;;;;;1.55;1.45;;;;;;;2.83;100.00;98625.47;6272049;22;20449;-83
2022/11/22 06:11:57;;;;;;;0.63;0.63;;;;;;;2.89;100.00;98631.22;6270963;22;20087;-83
2022/11/22 06:14:22;;;;;;;2.42;2.25;;;;;;;2.92;100.00;98635.84;6272080;22;20007;-85
2022/11/22 06:16:49;;;;;;;0.65;0.65;;;;;;;3.00;100.00;98650.97;6270389;22;20026;-83
2022/11/22 06:19:15;;;;;;;1.02;1.02;;;;;;;3.00;100.00;98646.28;6244725;22;20003;-85
2022/11/22 06:21:40;;;;;;;0.90;0.90;;;;;;;2.91;100.00;98631.59;6272135;22;20019;-84
2022/11/22 06:24:07;;;;;;;4.28;1.50;;;;;;;2.94;100.00;98649.91;6270017;22;20011;-84
2022/11/22 06:26:32;;;;;;;1.20;1.17;;;;;;;2.96;100.00;98653.00;6272136;22;20011;-84
2022/11/22 06:28:57;;;;;;;1.35;1.25;;;;;;;2.94;100.00;98647.19;6270672;22;20010;-84
2022/11/22 06:31:25;;;;;;;1.23;0.90;;;;;;;2.91;100.00;98642.56;6271463;22;20016;-84
2022/11/22 06:33:52;;;;;;;1.10;1.00;;;;;;;2.90;100.00;98646.47;6245238;22;20467;-84
2022/11/22 06:36:24;;;;;;;0.85;0.85;;;;;;;2.86;100.00;98643.81;6272834;22;20043;-84
2022/11/22 06:38:50;;;;;;;2.65;2.45;;;;;;;2.91;100.00;98654.28;6273522;22;20035;-84
2022/11/22 06:41:18;;;;;;;1.95;1.85;;;;;;;2.91;100.00;98646.06;6272637;22;20520;-84
2022/11/22 06:43:44;;;;;;;0.57;0.57;;;;;;;2.95;100.00;98651.47;6242847;22;20015;-84
2022/11/22 06:46:10;;;;;;;1.35;1.33;;;;;;;2.98;100.00;98656.09;6270061;22;20010;-84
2022/11/22 06:48:38;;;;;;;1.02;0.98;;;;;;;3.00;100.00;98650.97;6271508;22;20031;-84
2022/11/22 06:51:05;;;;;;;1.67;1.58;;;;;;;3.06;100.00;98658.31;6271559;22;20019;-84
2022/11/22 06:53:32;;;;;;;1.05;1.05;;;;;;;3.11;100.00;98660.56;6271446;22;20015;-84
2022/11/22 06:56:02;;;;;;;3.63;3.33;;;;;;;3.14;100.00;98659.72;6271763;22;20483;-84
2022/11/22 06:58:27;;;;;;;1.40;1.30;;;;;;;3.22;100.00;98654.88;6244122;22;20015;-84
2022/11/22 07:01:02;;;;;;;2.60;2.17;;;;;;;3.28;100.00;98653.94;6272882;22;20008;-83
2022/11/22 07:03:27;;;;;;;2.00;1.85;;;;;;;3.32;100.00;98653.88;6272343;22;20098;-84
2022/11/22 07:05:53;;;;;;;0.93;0.85;;;;;;;3.34;100.00;98650.72;6273239;22;20042;-84
2022/11/22 07:08:18;;;;;;;2.92;2.00;;;;;;;3.36;100.00;98640.88;6272458;22;20046;-84
2022/11/22 07:10:44;;;;;;;2.88;2.42;;;;;;;3.49;100.00;98649.22;6273221;22;20075;-84
2022/11/22 07:13:09;;;;;;;0.50;0.50;;;;;;;3.55;100.00;98631.09;6272649;22;20449;-84
2022/11/22 07:15:34;;;;;;;3.22;1.02;;;;;;;3.58;100.00;98647.47;6273335;22;20012;-83
2022/11/22 07:18:00;;;;;;;0.70;0.70;;;;;;;3.63;100.00;98651.69;6270855;22;20008;-84
2022/11/22 07:20:25;;;;;;;3.95;0.70;;;;;;;3.62;100.00;98639.94;6271536;22;20011;-84
2022/11/22 07:22:51;;;;;;;0.73;0.73;;;;;;;3.74;100.00;98644.78;6245331;22;20012;-83
2022/11/22 07:25:16;;;;;;;2.58;1.98;;;;;;;3.73;100.00;98645.97;6271029;22;20059;-80
2022/11/22 07:27:41;;;;;;;0.82;0.82;;;;;;;3.75;100.00;98643.59;6245988;22;20560;-80
2022/11/22 07:30:08;;;;;;;4.53;1.95;;;;;;;3.81;100.00;98635.63;6246022;22;20086;-79
2022/11/22 07:32:33;;;;;;;0.30;0.30;;;;;;;3.78;100.00;98631.00;6275342;22;20334;-79
2022/11/22 07:34:59;;;;;;;1.27;0.70;;;;;;;3.94;100.00;98633.00;6274660;22;20004;-79
2022/11/22 07:37:24;;;;;;;0.98;0.98;;;;;;;3.90;100.00;98621.31;6272437;22;20015;-79
2022/11/22 07:39:49;;;;;;;0.85;0.85;;;;;;;3.97;100.00;98623.91;6275203;22;20011;-81
2022/11/22 07:42:15;;;;;;;0.75;0.75;;;;;;;4.08;100.00;98627.97;6273490;22;20018;-81
2022/11/22 07:44:42;;;;;;;2.28;2.17;;;;;;;4.10;100.00;98633.00;6247373;22;20457;-81
2022/11/22 07:47:07;;;;;;;0.80;0.80;;;;;;;4.10;100.00;98624.78;6247776;22;20035;-81
2022/11/22 07:49:33;;;;;;;2.40;2.20;;;;;;;4.14;100.00;98622.72;6275025;22;20039;-81
2022/11/22 07:51:58;;;;;;;2.45;2.25;;;;;;;4.24;100.00;98618.97;6275217;22;20054;-81
2022/11/22 07:54:24;;;;;;;1.73;1.60;;;;;;;4.34;100.00;98615.19;6247538;22;20018;-81
2022/11/22 07:56:50;;;;;;;1.20;1.15;;;;;;;4.56;100.00;98634.66;6248002;22;20083;-82
2022/11/22 07:59:15;;;;;;;1.00;0.98;;;;;;;4.70;100.00;98629.56;6274890;22;20049;-82
2022/11/22 08:01:41;;;;;;;0.85;0.85;;;;;;;4.85;100.00;98629.22;6248293;22;20095;-81
2022/11/22 08:04:06;;;;;;;2.58;2.35;;;;;;;5.17;100.00;98640.13;6247873;22;20023;-81
2022/11/22 08:06:31;;;;;;;4.03;1.70;;;;;;;5.12;100.00;98637.91;6248433;22;20011;-81
2022/11/22 08:08:57;;;;;;;0.60;0.60;;;;;;;5.13;100.00;98639.44;6275228;22;20000;-81
2022/11/22 08:11:23;;;;;;;0.60;0.60;;;;;;;5.23;100.00;98638.38;6274780;22;20048;-81
2022/11/22 08:13:48;;;;;;;0.75;0.65;;;;;;;5.41;100.00;98651.63;6275301;22;20014;-81
2022/11/22 08:16:15;;;;;;;1.17;1.15;;;;;;;5.45;100.00;98655.84;6275002;22;20011;-81
2022/11/22 08:18:45;;;;;;;1.25;0.77;;;;;;;5.44;100.00;98637.78;6248088;22;20341;-81
2022/11/22 08:21:11;;;;;;;2.40;2.20;;;;;;;5.60;100.00;98640.47;6247959;22;20042;-81
2022/11/22 08:23:37;;;;;;;0.63;0.63;;;;;;;5.68;100.00;98651.25;6275093;22;20035;-82
2022/11/22 08:26:04;;;;;;;1.17;1.13;;;;;;;5.47;100.00;98653.41;6275189;22;20031;-82
2022/11/22 08:28:30;;;;;;;0.82;0.82;;;;;;;5.32;100.00;98635.00;6273604;22;20130;-81
2022/11/22 08:31:00;;;;;;;0.45;0.45;;;;;;;5.33;100.00;98642.03;6248190;22;20062;-81
2022/11/22 08:33:26;;;;;;;0.10;0.10;;;;;;;5.38;100.00;98639.50;6274474;22;20062;-81
2022/11/22 08:35:51;;;;;;;3.03;2.65;;;;;;;5.37;100.00;98627.00;6275147;22;20441;-81
2022/11/22 08:38:16;;;;;;;1.95;1.80;;;;;;;5.36;100.00;98625.44;6274588;22;20016;-81
2022/11/22 08:40:42;;;;;;;1.48;1.38;;;;;;;5.36;100.00;98622.69;6274276;22;20008;-87
2022/11/22 08:43:07;;;;;;;0.80;0.50;;;;;;;5.23;100.00;98627.38;6273977;22;20437;-87
2022/11/22 08:45:33;;;;;;;3.40;1.63;;;;;;;5.20;100.00;98611.75;6273294;22;20401;-86
2022/11/22 08:47:58;;;;;;;0.65;0.65;;;;;;;5.18;100.00;98622.41;6273868;22;20012;-87
2022/11/22 08:50:24;;;;;;;3.08;2.72;;;;;;;5.07;100.00;98622.72;6274113;22;20012;-87
2022/11/22 08:52:49;;;;;;;0.10;0.10;;;;;;;5.07;100.00;98619.19;6275304;22;20008;-87
2022/11/22 08:55:15;;;;;;;0.82;0.82;;;;;;;5.02;100.00;98634.22;6272391;22;20000;-87
2022/11/22 08:57:41;;;;;;;0.45;0.45;;;;;;;5.00;100.00;98624.88;6272442;22;20015;-87
2022/11/22 09:00:07;;;;;;;0.82;0.60;;;;;;;4.97;100.00;98636.75;6271995;22;20472;-87
2022/11/22 09:02:33;;;;;;;0.90;0.90;;;;;;;5.03;100.00;98644.03;6247204;22;20098;-86
2022/11/22 09:04:58;;;;;;;0.80;0.80;;;;;;;4.97;100.00;98642.25;6275257;22;20043;-86
2022/11/22 09:07:24;;;;;;;1.45;1.35;;;;;;;5.07;100.00;98636.44;6247609;22;20018;-87
2022/11/22 09:09:49;;;;;;;1.23;1.15;;;;;;;5.15;100.00;98639.78;6246847;22;20011;-86
2022/11/22 09:12:15;;;;;;;1.98;1.88;;;;;;;5.19;100.00;98632.19;6247453;22;20012;-86
2022/11/22 09:14:40;;;;;;;1.65;0.90;;;;;;;5.20;100.00;98628.25;6274082;22;20011;-86
2022/11/22 09:17:06;;;;;;;2.42;2.00;;;;;;;5.19;100.00;98615.72;6274698;22;20007;-86
2022/11/22 09:19:31;;;;;;;1.58;1.48;;;;;;;5.22;100.00;98609.34;6273795;22;20011;-81
2022/11/22 09:21:57;;;;;;;1.13;1.02;;;;;;;5.32;100.00;98605.53;6274241;22;20034;-81
2022/11/22 09:24:22;;;;;;;1.33;1.23;;;;;;;5.33;100.00;98603.56;6273784;22;20452;-81
2022/11/22 09:26:47;;;;;;;1.30;1.20;;;;;;;5.41;100.00;98593.91;6274440;22;20011;-81
2022/11/22 09:29:14;;;;;;;0.13;0.10;;;;;;;5.46;100.00;98605.09;6273713;22;20004;-81
2022/11/22 09:31:40;;;;;;;2.72;0.65;;;;;;;5.58;100.00;98596.09;6247466;22;20453;-81
2022/11/22 09:34:06;;;;;;;0.80;0.80;;;;;;;5.66;100.00;98582.94;6274249;22;20070;-81
2022/11/22 09:36:33;;;;;;;0.85;0.30;;;;;;;5.64;100.00;98575.13;6245863;22;20054;-81
2022/11/22 09:38:59;;;;;;;0.57;0.57;;;;;;;5.72;100.00;98570.16;6246644;22;20087;-81
2022/11/22 09:41:51;;;;;;;1.17;1.08;;;;;;;5.78;100.00;98560.16;6274091;22;20046;-81
2022/11/22 09:44:53;;;;;;;0.70;0.70;;;;;;;5.87;100.00;98570.50;6273792;22;20015;-81
2022/11/22 09:47:28;;;;;;;0.35;0.35;;;;;;;5.97;100.00;98567.44;6274025;22;20086;-81
2022/11/22 09:50:05;;;;;;;3.72;2.33;;;;;;;6.01;100.00;98554.34;6273182;22;20015;-81
2022/11/22 09:52:39;;;;;;;0.40;0.40;;;;;;;6.02;100.00;98555.13;6274003;22;20011;-81
2022/11/22 09:55:27;;;;;;;0.73;0.63;;;;;;;6.08;100.00;98536.81;6247042;22;20023;-81
2022/11/22 09:58:03;;;;;;;0.63;0.45;;;;;;;6.10;100.00;98520.63;6274027;22;20091;-86
2022/11/22 10:00:28;;;;;;;0.40;0.40;;;;;;;6.09;100.00;98511.59;6246535;22;20392;-86
2022/11/22 10:03:01;;;;;;;1.63;1.40;;;;;;;6.18;100.00;98485.38;6272884;22;20091;-86
2022/11/22 10:05:33;;;;;;;0.25;0.25;;;;;;;6.18;100.00;98466.09;6245117;22;20011;-86
2022/11/22 10:08:24;;;;;;;0.30;0.30;;;;;;;6.32;100.00;98479.38;6246816;22;20011;-86
2022/11/22 10:10:52;;;;;;;0.73;0.73;;;;;;;6.45;100.00;98474.59;6246873;22;20087;-86
2022/11/22 10:13:30;;;;;;;2.17;2.00;;;;;;;6.63;100.00;98469.25;6247346;22;20464;-86
2022/11/22 10:16:04;;;;;;;2.78;1.70;;;;;;;6.76;100.00;98469.16;6247081;22;20042;-86
2022/11/22 10:18:40;;;;;;;0.90;0.55;;;;;;;6.87;100.00;98464.03;6273863;22;20019;-86
2022/11/22 10:21:12;;;;;;;0.77;0.40;;;;;;;6.91;100.00;98464.69;6246515;22;20090;-86
2022/11/22 10:23:40;;;;;;;0.08;0.08;;;;;;;7.06;100.00;98443.63;6274928;22;20015;-86
2022/11/22 10:26:20;;;;;;;0.80;0.80;;;;;;;7.19;100.00;98449.81;6247021;22;20012;-87
2022/11/22 10:28:48;;;;;;;0.63;0.63;;;;;;;7.40;100.00;98453.75;6274307;22;20501;-86
2022/11/22 10:31:23;;;;;;;0.20;0.20;;;;;;;7.34;100.00;98442.53;6273716;22;20016;-86
2022/11/22 10:34:02;;;;;;;0.70;0.70;;;;;;;7.40;100.00;98435.19;6246970;22;20042;-86
2022/11/22 10:36:34;;;;;;;0.30;0.30;;;;;;;7.42;100.00;98438.28;6246957;22;20012;-86
2022/11/22 10:39:18;;;;;;;0.93;0.90;;;;;;;7.42;100.00;98432.75;6273708;22;20041;-85
2022/11/22 10:42:04;;;;;;;;;;;;;;;7.38;100.00;98426.63;6247703;22;20014;-86
2022/11/22 10:44:40;;;;;;;0.40;0.40;;;;;;;7.39;100.00;98427.38;6246361;22;19918;-85
2022/11/22 10:47:24;;;;;;;0.70;0.70;;;;;;;7.44;100.00;98435.81;6246783;22;20015;-86
2022/11/22 10:50:11;;;;;;;0.85;0.52;;;;;;;7.41;100.00;98417.41;6273219;22;20392;-86
2022/11/22 10:52:58;;;;;;;2.33;1.90;;;;;;;7.58;100.00;98425.44;6246660;22;20311;-86
2022/11/22 10:55:51;;;;;;;0.55;0.50;;;;;;;7.75;100.00;98423.97;6273347;22;20434;-81
2022/11/22 10:58:32;;;;;;;0.28;0.28;;;;;;;7.93;100.00;98419.22;6246419;22;20019;-81
2022/11/22 11:01:12;;;;;;;0.88;0.32;;;;;;;7.96;100.00;98417.56;6220728;22;20022;-81
2022/11/22 11:03:42;;;;;;;0.85;0.63;;;;;;;7.87;100.00;98412.03;6245885;22;20416;-81
2022/11/22 11:06:22;;;;;;;0.17;0.17;;;;;;;7.72;100.00;98424.88;6274826;22;20023;-81
2022/11/22 11:08:56;;;;;;;0.22;0.22;;;;;;;7.53;100.00;98404.72;6222641;22;20022;-81
2022/11/22 11:11:25;;;;;;;0.50;0.50;;;;;;;7.50;100.00;98400.13;6248620;22;20007;-81
2022/11/22 11:13:54;;;;;;;0.30;0.30;;;;;;;7.42;100.00;98396.91;6223367;22;20008;-81
2022/11/22 11:16:21;;;;;;;1.55;1.10;;;;;;;7.42;100.00;98387.84;6248361;22;20507;-81
2022/11/22 11:18:52;;;;;;;0.22;0.22;;;;;;;7.48;100.00;98392.28;6247979;22;20382;-81
2022/11/22 11:21:18;;;;;;;0.95;0.93;;;;;;;7.49;100.00;98374.53;6248674;22;20158;-81
2022/11/22 11:23:43;;;;;;;1.13;0.75;;;;;;;7.49;100.00;98377.28;6248354;22;20437;-81
2022/11/22 11:26:30;;;;;;;0.10;0.10;;;;;;;7.39;100.00;98375.75;6275691;22;20065;-81
2022/11/22 11:29:17;;;;;;;0.80;0.80;;;;;;;7.36;100.00;98378.66;6275634;22;20016;-81
2022/11/22 11:31:50;;;;;;;0.45;0.35;;;;;;;7.32;100.00;98381.53;6275398;22;20022;-81
2022/11/22 11:34:21;;;;;;;2.17;0.98;;;;;;;7.32;100.00;98384.28;6247292;22;20016;-86
2022/11/22 11:36:46;;;;;;;0.40;0.40;;;;;;;7.35;100.00;98372.38;6248661;22;20039;-86
2022/11/22 11:39:31;;;;;;;5.00;1.75;;;;;;;7.43;100.00;98368.09;6247922;22;20004;-85
2022/11/22 11:41:56;;;;;;;0.20;0.20;;;;;;;7.43;100.00;98372.84;6248125;22;20014;-87
2022/11/22 11:44:30;;;;;;;1.13;1.13;;;;;;;7.47;100.00;98365.19;6247144;22;20043;-85
2022/11/22 11:46:57;;;;;;;0.70;0.70;;;;;;;7.50;100.00;98367.78;6275130;22;20341;-85
2022/11/22 11:49:25;;;;;;;0.25;0.25;;;;;;;7.49;100.00;98380.03;6247573;22;20429;-87
2022/11/22 11:51:55;;;;;;;1.33;1.17;;;;;;;7.30;100.00;98370.19;6248512;22;20106;-86